Time;durP1;ratioP1;P1;durP2;ratioP2;P2;SDS_P1;SDS_P2;PMS_P1;PMS_P2;Temp;Humidity;BMP_temperature;BMP_pressure;BME280_temperature;BME280_humidity;BME280_pressure;Samples;Min_cycle;Max_cycle;Signal;HPM_P1;HPM_P2
2023/02/20 00:00:11;;;;;;;;;;;;;;;7.97;76.38;98906.97;5065342;28;20381;-51
2023/02/20 00:02:41;;;;;;;;;;;;;;;8.02;76.48;98898.84;5067406;28;19928;-52
2023/02/20 00:05:09;;;;;;;;;;;;;;;8.14;76.06;98893.16;5061864;28;19929;-51
2023/02/20 00:07:37;;;;;;;;;;;;;;;8.17;75.50;98903.47;5063526;28;19928;-52
2023/02/20 00:10:08;;;;;;;;;;;;;;;8.15;75.86;98900.22;5071716;28;19995;-52
2023/02/20 00:12:35;;;;;;;;;;;;;;;8.07;75.97;98893.44;5062902;28;19933;-52
2023/02/20 00:15:04;;;;;;;;;;;;;;;8.09;75.92;98901.28;5055723;28;20415;-52
2023/02/20 00:17:32;;;;;;;;;;;;;;;7.95;76.37;98901.03;5064812;28;19931;-52
2023/02/20 00:20:01;;;;;;;;;;;;;;;8.01;76.30;98904.53;5059329;28;19932;-51
2023/02/20 00:22:29;;;;;;;;;;;;;;;8.01;76.23;98901.84;5060183;28;19929;-52
2023/02/20 00:24:57;;;;;;;;;;;;;;;8.06;76.37;98907.25;5058717;28;19929;-51
2023/02/20 00:27:28;;;;;;;;;;;;;;;8.06;76.22;98905.34;5069071;28;19929;-52
2023/02/20 00:29:57;;;;;;;;;;;;;;;8.08;76.45;98907.78;5064796;28;19971;-53
2023/02/20 00:32:25;;;;;;;;;;;;;;;8.03;76.49;98903.16;5065570;28;19928;-52
2023/02/20 00:34:53;;;;;;;;;;;;;;;8.01;76.20;98909.94;5054021;28;19929;-53
2023/02/20 00:37:23;;;;;;;;;;;;;;;7.99;76.35;98912.09;5059376;28;19925;-52
2023/02/20 00:42:43;;;;;;;;;;;;;;;8.05;76.47;98911.03;5061465;28;19971;-51
2023/02/20 00:45:12;;;;;;;;;;;;;;;8.06;76.55;98907.25;5072300;28;20440;-52
2023/02/20 00:47:40;;;;;;;;;;;;;;;8.04;76.63;98912.09;5061071;28;19929;-52
2023/02/20 00:50:08;;;;;;;;;;;;;;;7.99;76.50;98912.09;5058563;28;20329;-52
2023/02/20 00:52:39;;;;;;;;;;;;;;;8.04;76.48;98910.22;5063304;28;20364;-52
2023/02/20 00:55:07;;;;;;;;;;;;;;;7.99;76.71;98901.28;5059713;28;20420;-52
2023/02/20 00:57:35;;;;;;;;;;;;;;;7.94;77.14;98904.00;5063555;28;20373;-52
2023/02/20 01:02:57;;;;;;;;;;;;;;;8.02;76.83;98906.16;5067012;28;19931;-52
2023/02/20 01:05:26;;;;;;;;;;;;;;;8.02;76.89;98906.16;5077332;28;19978;-52
2023/02/20 01:07:55;;;;;;;;;;;;;;;8.05;76.51;98901.03;5097065;28;19959;-52
2023/02/20 01:10:48;;;;;;;;;;;;;;;7.98;76.70;98903.16;5066068;28;19925;-52
2023/02/20 01:13:16;;;;;;;;;;;;;;;8.04;76.43;98903.97;5058505;28;19955;-53
2023/02/20 01:15:44;;;;;;;;;;;;;;;8.07;76.45;98898.84;5078492;28;19935;-52
2023/02/20 01:18:13;;;;;;;;;;;;;;;7.98;76.34;98897.75;5064264;28;19933;-52
2023/02/20 01:20:41;;;;;;;;;;;;;;;7.98;76.30;98899.66;5074070;28;20392;-53
2023/02/20 01:23:11;;;;;;;;;;;;;;;7.99;76.53;98906.69;5056958;28;19929;-52
2023/02/20 01:25:39;;;;;;;;;;;;;;;7.98;76.55;98905.88;5084880;28;19924;-52
2023/02/20 01:28:09;;;;;;;;;;;;;;;7.93;76.83;98903.16;5064911;28;19990;-53
2023/02/20 01:31:03;;;;;;;;;;;;;;;8.02;76.30;98911.56;5070087;28;19962;-58
2023/02/20 01:33:58;;;;;;;;;;;;;;;7.98;75.90;98905.06;5058395;28;20355;-53
2023/02/20 01:36:27;;;;;;;;;;;;;;;7.91;76.25;98899.94;5087610;28;19924;-51
2023/02/20 01:38:56;;;;;;;;;;;;;;;7.84;76.54;98900.19;5073435;28;20301;-51
2023/02/20 01:41:25;;;;;;;;;;;;;;;7.90;76.18;98905.63;5097551;28;20011;-51
2023/02/20 01:46:50;;;;;;;;;;;;;;;7.86;76.23;98900.72;5098726;28;20385;-52
2023/02/20 01:49:20;;;;;;;;;;;;;;;7.85;76.29;98901.81;5062165;28;19936;-53
2023/02/20 01:51:50;;;;;;;;;;;;;;;7.85;76.28;98899.09;5058432;28;20002;-51
2023/02/20 01:54:20;;;;;;;;;;;;;;;7.83;76.42;98895.06;5092922;28;19932;-52
2023/02/20 01:56:48;;;;;;;;;;;;;;;7.76;76.48;98892.59;5065450;28;19924;-56
2023/02/20 01:59:16;;;;;;;;;;;;;;;7.78;76.38;98887.75;5083776;28;19931;-52
2023/02/20 02:01:47;;;;;;;;;;;;;;;7.70;76.27;98890.97;5061323;28;19978;-52
2023/02/20 02:04:39;;;;;;;;;;;;;;;7.66;76.45;98876.34;5062131;28;21619;-52
2023/02/20 02:07:08;;;;;;;;;;;;;;;7.69;76.57;98883.94;5058005;28;19932;-53
2023/02/20 02:09:39;;;;;;;;;;;;;;;7.77;76.21;98880.69;5063958;28;20405;-52
2023/02/20 02:12:07;;;;;;;;;;;;;;;7.70;76.46;98877.44;5062784;28;19931;-52
2023/02/20 02:14:36;;;;;;;;;;;;;;;7.74;75.83;98878.53;5093015;28;20083;-52
2023/02/20 02:17:07;;;;;;;;;;;;;;;7.80;75.29;98882.88;5060089;28;19936;-52
2023/02/20 02:19:45;;;;;;;;;;;;;;;7.78;75.83;98876.13;5097282;28;19924;-52
2023/02/20 02:22:37;;;;;;;;;;;;;;;7.65;76.42;98868.53;5086278;28;19924;-52
2023/02/20 02:25:14;;;;;;;;;;;;;;;7.79;75.95;98880.44;5060929;28;19925;-51
2023/02/20 02:27:50;;;;;;;;;;;;;;;7.75;75.97;98879.34;5091013;28;20333;-52
2023/02/20 02:30:36;;;;;;;;;;;;;;;7.68;76.52;98885.03;5053712;28;20477;-51
2023/02/20 02:33:07;;;;;;;;;;;;;;;7.76;76.20;98878.25;5063451;28;19951;-52
2023/02/20 02:35:40;;;;;;;;;;;;;;;7.70;76.12;98876.63;5053763;28;19925;-52
2023/02/20 02:38:37;;;;;;;;;;;;;;;7.69;76.40;98870.41;5062981;28;19994;-52
2023/02/20 02:41:06;;;;;;;;;;;;;;;7.69;76.17;98867.72;5052185;28;19936;-52
2023/02/20 02:43:37;;;;;;;;;;;;;;;7.76;76.08;98862.84;5069421;28;19948;-52
2023/02/20 02:46:06;;;;;;;;;;;;;;;7.75;76.26;98868.53;5093264;28;19925;-52
2023/02/20 02:48:35;;;;;;;;;;;;;;;7.64;76.09;98856.88;5074445;28;19949;-53
2023/02/20 02:51:04;;;;;;;;;;;;;;;7.61;76.26;98857.41;5049658;28;19924;-52
2023/02/20 02:53:32;;;;;;;;;;;;;;;7.60;76.26;98848.50;5057264;28;19932;-52
2023/02/20 02:56:20;;;;;;;;;;;;;;;7.64;75.83;98845.25;5060520;28;20404;-51
2023/02/20 02:58:48;;;;;;;;;;;;;;;7.65;75.65;98844.19;5056026;28;19995;-53
2023/02/20 03:01:16;;;;;;;;;;;;;;;7.52;75.97;98849.03;5054431;28;19925;-51
2023/02/20 03:03:44;;;;;;;;;;;;;;;7.64;75.93;98846.06;5065414;28;20395;-52
2023/02/20 03:06:13;;;;;;;;;;;;;;;7.56;75.99;98858.25;5060170;28;19932;-51
2023/02/20 03:08:45;;;;;;;;;;;;;;;7.56;76.04;98862.81;5058303;28;20281;-51
2023/02/20 03:11:15;;;;;;;;;;;;;;;7.57;75.91;98856.34;5066862;28;19978;-51
2023/02/20 03:16:41;;;;;;;;;;;;;;;7.47;76.26;98845.53;5083272;28;19932;-52
2023/02/20 03:19:12;;;;;;;;;;;;;;;7.42;75.99;98845.50;5057359;28;19925;-51
2023/02/20 03:21:41;;;;;;;;;;;;;;;7.49;75.89;98859.56;5059422;28;19925;-52
2023/02/20 03:24:10;;;;;;;;;;;;;;;7.43;75.85;98860.66;5096718;28;19928;-52
2023/02/20 03:26:39;;;;;;;;;;;;;;;7.43;75.97;98860.66;5048910;28;19932;-51
2023/02/20 03:29:09;;;;;;;;;;;;;;;7.37;76.38;98873.34;5068270;28;19929;-51
2023/02/20 03:31:37;;;;;;;;;;;;;;;7.42;76.15;98862.53;5058622;28;20378;-52
2023/02/20 03:45:43;;;;;;;;;;;;;;;7.40;76.25;98861.97;5062451;28;19935;-52
2023/02/20 03:48:15;;;;;;;;;;;;;;;7.30;76.34;98860.09;5069337;28;20373;-52
2023/02/20 03:50:43;;;;;;;;;;;;;;;7.35;76.14;98860.09;5061948;28;19998;-52
2023/02/20 03:53:11;;;;;;;;;;;;;;;7.34;76.35;98861.16;5065961;28;19925;-51
2023/02/20 03:55:39;;;;;;;;;;;;;;;7.30;76.33;98862.78;5073397;28;19925;-52
2023/02/20 03:58:13;;;;;;;;;;;;;;;7.33;76.19;98861.44;5086115;28;19924;-51
2023/02/20 04:00:42;;;;;;;;;;;;;;;7.28;76.36;98859.53;5055053;28;19932;-52
2023/02/20 04:03:11;;;;;;;;;;;;;;;7.27;76.46;98862.50;5063841;28;19924;-52
2023/02/20 04:05:44;;;;;;;;;;;;;;;7.25;76.55;98859.25;5070359;28;19924;-51
2023/02/20 04:08:16;;;;;;;;;;;;;;;7.28;76.10;98859.53;5062741;28;20300;-51
2023/02/20 04:10:45;;;;;;;;;;;;;;;7.27;76.46;98848.97;5064845;28;19993;-51
2023/02/20 04:13:15;;;;;;;;;;;;;;;7.37;75.90;98859.81;5053179;28;19925;-51
2023/02/20 04:15:47;;;;;;;;;;;;;;;7.28;76.02;98864.13;5061115;28;19929;-52
2023/02/20 04:18:17;;;;;;;;;;;;;;;7.41;75.73;98868.22;5061646;28;20329;-51
2023/02/20 04:20:48;;;;;;;;;;;;;;;7.32;75.88;98874.13;5065369;28;19929;-51
2023/02/20 04:23:24;;;;;;;;;;;;;;;7.39;75.94;98864.94;5062356;28;20302;-52
2023/02/20 04:25:53;;;;;;;;;;;;;;;7.44;75.18;98868.47;5065791;28;19932;-51
2023/02/20 04:28:47;;;;;;;;;;;;;;;7.49;75.09;98862.28;5060683;28;20013;-52
2023/02/20 04:31:18;;;;;;;;;;;;;;;7.45;75.24;98859.28;5064366;28;19946;-51
2023/02/20 04:33:48;;;;;;;;;;;;;;;7.43;75.27;98856.03;5060992;28;19932;-51
2023/02/20 04:36:20;;;;;;;;;;;;;;;7.46;75.36;98854.72;5066407;28;19935;-52
2023/02/20 04:38:50;;;;;;;;;;;;;;;7.44;75.28;98846.03;5094577;28;19928;-51
2023/02/20 04:41:23;;;;;;;;;;;;;;;7.41;75.58;98836.59;5097245;28;20400;-52
2023/02/20 04:44:34;;;;;;;;;;;;;;;7.42;75.22;98854.44;5058930;28;20390;-51
2023/02/20 04:47:11;;;;;;;;;;;;;;;7.35;75.61;98852.00;5098778;28;19935;-52
2023/02/20 04:49:39;;;;;;;;;;;;;;;7.32;75.47;98860.63;5074616;28;19925;-52
2023/02/20 04:52:09;;;;;;;;;;;;;;;7.33;75.52;98856.03;5067241;28;19924;-52
2023/02/20 04:54:39;;;;;;;;;;;;;;;7.39;75.28;98859.53;5063519;28;19924;-51
2023/02/20 04:57:11;;;;;;;;;;;;;;;7.33;75.01;98862.25;5062412;28;20332;-52
2023/02/20 04:59:40;;;;;;;;;;;;;;;7.34;74.54;98860.34;5063875;28;20435;-51
2023/02/20 05:02:12;;;;;;;;;;;;;;;7.28;74.35;98858.72;5072168;28;19983;-51
2023/02/20 05:04:40;;;;;;;;;;;;;;;7.33;74.18;98859.53;5060912;28;19928;-52
2023/02/20 05:07:08;;;;;;;;;;;;;;;7.28;73.63;98862.22;5066589;28;19946;-52
2023/02/20 05:09:36;;;;;;;;;;;;;;;7.31;73.19;98867.09;5065615;28;19932;-52
2023/02/20 05:12:06;;;;;;;;;;;;;;;7.42;72.42;98875.25;5064603;28;20389;-51
2023/02/20 05:14:35;;;;;;;;;;;;;;;7.41;72.26;98877.13;5062178;28;19932;-52
2023/02/20 05:17:04;;;;;;;;;;;;;;;7.41;72.83;98884.44;5064626;28;19970;-52
2023/02/20 05:19:37;;;;;;;;;;;;;;;7.36;72.55;98871.72;5063637;28;19974;-52
2023/02/20 05:22:21;;;;;;;;;;;;;;;7.36;72.24;98871.72;5060667;28;20019;-51
2023/02/20 05:24:50;;;;;;;;;;;;;;;7.44;71.92;98886.59;5067415;28;20211;-51
2023/02/20 05:27:42;;;;;;;;;;;;;;;7.48;71.67;98893.09;5064820;28;20077;-52
2023/02/20 05:30:11;;;;;;;;;;;;;;;7.35;72.23;98900.66;5064845;28;19925;-52
2023/02/20 05:32:39;;;;;;;;;;;;;;;7.41;71.93;98908.78;5094293;28;19928;-52
2023/02/20 05:35:08;;;;;;;;;;;;;;;7.32;71.93;98903.88;5065044;28;19928;-52
2023/02/20 05:37:36;;;;;;;;;;;;;;;7.34;71.91;98904.41;5058674;28;19931;-52
2023/02/20 05:40:05;;;;;;;;;;;;;;;7.21;72.16;98912.22;5069020;28;20489;-52
2023/02/20 05:42:33;;;;;;;;;;;;;;;7.27;72.26;98911.16;5056528;28;19924;-52
2023/02/20 05:45:04;;;;;;;;;;;;;;;7.22;72.57;98909.25;5056253;28;19940;-53
2023/02/20 05:47:32;;;;;;;;;;;;;;;7.20;72.21;98914.09;5062655;28;19929;-52
2023/02/20 05:50:00;;;;;;;;;;;;;;;7.24;71.71;98915.19;5060531;28;19931;-52
2023/02/20 05:52:29;;;;;;;;;;;;;;;7.16;71.97;98925.69;5067634;28;19962;-51
2023/02/20 05:54:57;;;;;;;;;;;;;;;7.19;72.17;98927.84;5062714;28;19935;-52
2023/02/20 05:57:49;;;;;;;;;;;;;;;7.18;72.15;98932.47;5067134;28;19943;-52
2023/02/20 06:00:18;;;;;;;;;;;;;;;7.24;71.52;98934.09;5058892;28;19988;-53
2023/02/20 06:02:46;;;;;;;;;;;;;;;7.23;71.81;98939.78;5089279;28;19994;-52
2023/02/20 06:05:14;;;;;;;;;;;;;;;7.14;72.18;98935.94;5056499;28;19946;-52
2023/02/20 06:07:47;;;;;;;;;;;;;;;7.26;71.31;98931.97;5063775;28;19935;-53
2023/02/20 06:10:15;;;;;;;;;;;;;;;7.26;71.49;98925.75;5060017;28;20026;-52
2023/02/20 06:12:43;;;;;;;;;;;;;;;7.26;71.65;98926.56;5063211;28;19982;-52
2023/02/20 06:15:12;;;;;;;;;;;;;;;7.28;71.35;98924.38;5055450;28;20309;-52
2023/02/20 06:17:42;;;;;;;;;;;;;;;7.23;71.70;98937.88;5065238;28;20463;-52
2023/02/20 06:20:11;;;;;;;;;;;;;;;7.35;71.56;98922.28;5066259;28;19942;-52
2023/02/20 06:22:40;;;;;;;;;;;;;;;7.25;71.66;98916.81;5053354;28;19959;-52
2023/02/20 06:25:10;;;;;;;;;;;;;;;7.20;71.78;98922.22;5093976;28;19959;-52
2023/02/20 06:27:40;;;;;;;;;;;;;;;7.30;71.47;98930.38;5064456;28;19924;-53
2023/02/20 06:30:09;;;;;;;;;;;;;;;7.24;72.22;98939.50;5051355;28;19925;-53
2023/02/20 06:32:37;;;;;;;;;;;;;;;7.32;72.15;98936.31;5051956;28;19949;-54
2023/02/20 06:35:06;;;;;;;;;;;;;;;7.32;71.82;98930.91;5053583;28;19932;-53
2023/02/20 06:37:34;;;;;;;;;;;;;;;7.58;70.62;98934.50;5054267;28;19943;-52
2023/02/20 06:40:05;;;;;;;;;;;;;;;7.50;71.01;98942.31;5053693;28;19932;-52
2023/02/20 06:42:35;;;;;;;;;;;;;;;7.54;70.69;98938.00;5056478;28;19955;-52
2023/02/20 06:45:03;;;;;;;;;;;;;;;7.52;70.59;98937.47;5056110;28;19932;-52
2023/02/20 06:47:31;;;;;;;;;;;;;;;7.54;70.32;98938.81;5053191;28;20317;-53
2023/02/20 06:49:59;;;;;;;;;;;;;;;7.45;70.75;98951.22;5058003;28;19925;-53
2023/02/20 06:52:27;;;;;;;;;;;;;;;7.49;70.69;98946.09;5052687;28;19933;-52
2023/02/20 06:54:55;;;;;;;;;;;;;;;7.46;70.84;98941.22;5061195;28;19982;-52
2023/02/20 06:57:26;;;;;;;;;;;;;;;7.54;70.50;98935.28;5060125;28;19925;-52
2023/02/20 07:00:21;;;;;;;;;;;;;;;7.54;70.67;98927.19;5059086;28;19999;-53
2023/02/20 07:02:49;;;;;;;;;;;;;;;7.60;70.14;98931.53;5066314;28;19924;-52
2023/02/20 07:05:18;;;;;;;;;;;;;;;7.67;70.03;98942.91;5073210;28;19929;-52
2023/02/20 07:07:46;;;;;;;;;;;;;;;7.65;70.00;98939.66;5061586;28;19932;-53
2023/02/20 07:10:15;;;;;;;;;;;;;;;7.54;70.40;98943.41;5062308;28;19933;-53
2023/02/20 07:12:42;;;;;;;;;;;;;;;7.67;70.12;98942.91;5052236;28;19932;-53
2023/02/20 07:15:10;;;;;;;;;;;;;;;7.60;70.10;98947.75;5068788;28;19931;-52
2023/02/20 07:17:40;;;;;;;;;;;;;;;7.56;70.36;98936.66;5068300;28;19925;-53
2023/02/20 07:20:10;;;;;;;;;;;;;;;7.45;70.50;98926.06;5069348;28;19933;-53
2023/02/20 07:22:38;;;;;;;;;;;;;;;7.46;70.85;98925.81;5058869;28;19928;-52
2023/02/20 07:25:07;;;;;;;;;;;;;;;7.40;70.99;98909.81;5062588;28;19925;-54
2023/02/20 07:27:35;;;;;;;;;;;;;;;7.42;70.90;98913.91;5094393;28;19932;-52
2023/02/20 07:30:04;;;;;;;;;;;;;;;7.43;71.09;98903.91;5063509;28;19932;-53
2023/02/20 07:32:31;;;;;;;;;;;;;;;7.35;71.25;98907.94;5068595;28;19928;-53
2023/02/20 07:35:01;;;;;;;;;;;;;;;7.35;71.27;98910.66;5059198;28;19925;-53
2023/02/20 07:37:33;;;;;;;;;;;;;;;7.39;71.38;98903.59;5100901;28;19924;-53
2023/02/20 07:40:05;;;;;;;;;;;;;;;7.35;71.52;98918.75;5063184;28;20378;-52
2023/02/20 07:42:37;;;;;;;;;;;;;;;7.27;71.46;98913.84;5070866;28;20054;-52
2023/02/20 07:45:21;;;;;;;;;;;;;;;7.29;71.70;98922.50;5070530;28;20050;-53
2023/02/20 07:47:49;;;;;;;;;;;;;;;7.35;71.73;98924.97;5066971;28;19925;-53
2023/02/20 07:50:18;;;;;;;;;;;;;;;7.49;70.95;98929.88;5098375;28;19932;-52
2023/02/20 07:52:46;;;;;;;;;;;;;;;7.59;70.61;98936.13;5071833;28;19955;-52
2023/02/20 07:55:15;;;;;;;;;;;;;;;7.63;70.65;98935.59;5069987;28;19924;-53
2023/02/20 07:57:45;;;;;;;;;;;;;;;7.70;70.00;98925.31;5064781;28;19924;-52
2023/02/20 08:00:14;;;;;;;;;;;;;;;7.71;70.16;98916.13;5071109;28;19924;-53
2023/02/20 08:02:41;;;;;;;;;;;;;;;7.81;69.97;98908.03;5059693;28;20403;-53
2023/02/20 08:05:10;;;;;;;;;;;;;;;7.88;69.75;98895.88;5067862;28;19939;-53
2023/02/20 08:07:43;;;;;;;;;;;;;;;7.91;69.30;98888.28;5068305;28;20021;-57
2023/02/20 08:10:11;;;;;;;;;;;;;;;8.13;68.30;98915.91;5065170;28;19935;-53
2023/02/20 08:12:39;;;;;;;;;;;;;;;8.33;67.73;98915.91;5071042;28;19930;-53
2023/02/20 08:15:10;;;;;;;;;;;;;;;8.32;67.63;98898.03;5064236;28;19924;-52
2023/02/20 08:17:39;;;;;;;;;;;;;;;8.57;66.99;98897.19;5065585;28;19925;-53
2023/02/20 08:20:13;;;;;;;;;;;;;;;8.46;66.95;98892.06;5069638;28;19940;-52
2023/02/20 08:22:43;;;;;;;;;;;;;;;8.60;66.32;98896.66;5070555;28;19981;-53
2023/02/20 08:25:15;;;;;;;;;;;;;;;8.66;66.68;98900.97;5070372;28;19982;-53
2023/02/20 08:27:43;;;;;;;;;;;;;;;8.72;65.04;98914.50;5072754;28;20438;-53
2023/02/20 08:30:13;;;;;;;;;;;;;;;8.42;66.55;98918.09;5060246;28;19948;-52
2023/02/20 08:32:41;;;;;;;;;;;;;;;8.32;66.53;98914.28;5064406;28;19985;-53
2023/02/20 08:35:09;;;;;;;;;;;;;;;8.26;66.49;98899.13;5059789;28;19925;-53
2023/02/20 08:37:38;;;;;;;;;;;;;;;8.19;66.72;98890.44;5071142;28;19935;-52
2023/02/20 08:40:09;;;;;;;;;;;;;;;8.11;67.48;98893.72;5072149;28;19924;-52
2023/02/20 08:42:37;;;;;;;;;;;;;;;8.19;67.02;98887.75;5105382;28;19975;-53
2023/02/20 08:45:06;;;;;;;;;;;;;;;8.24;67.26;98893.16;5065202;28;20293;-53
2023/02/20 08:47:34;;;;;;;;;;;;;;;8.40;66.07;98886.66;5067631;28;19924;-53
2023/02/20 08:50:02;;;;;;;;;;;;;;;8.55;65.89;98877.72;5067801;28;19924;-53
2023/02/20 08:52:30;;;;;;;;;;;;;;;8.74;65.67;98871.72;5062443;28;19935;-55
2023/02/20 08:54:58;;;;;;;;;;;;;;;8.89;64.41;98871.66;5065128;28;19935;-53
2023/02/20 08:57:28;;;;;;;;;;;;;;;8.93;64.60;98880.84;5068955;28;19932;-52
2023/02/20 08:59:56;;;;;;;;;;;;;;;8.85;64.60;98874.13;5055258;28;19928;-53
2023/02/20 09:02:27;;;;;;;;;;;;;;;8.86;64.36;98867.59;5068356;28;20446;-53
2023/02/20 09:04:57;;;;;;;;;;;;;;;8.89;64.23;98864.34;5060719;28;19932;-53
2023/02/20 09:07:25;;;;;;;;;;;;;;;8.89;64.12;98869.78;5076991;28;19928;-53
2023/02/20 09:09:54;;;;;;;;;;;;;;;9.04;63.77;98871.59;5070077;28;19928;-52
2023/02/20 09:12:22;;;;;;;;;;;;;;;9.09;63.56;98859.91;5067009;28;19925;-52
2023/02/20 09:14:56;;;;;;;;;;;;;;;9.05;62.40;98862.38;5076489;28;20037;-52
2023/02/20 09:17:24;;;;;;;;;;;;;;;9.17;62.81;98859.34;5068716;28;19925;-52
2023/02/20 09:19:53;;;;;;;;;;;;;;;9.16;62.26;98857.72;5061408;28;19939;-52
2023/02/20 09:22:22;;;;;;;;;;;;;;;9.30;61.75;98861.44;5061572;28;19967;-53
2023/02/20 09:24:50;;;;;;;;;;;;;;;9.36;61.83;98848.66;5069224;28;19960;-52
2023/02/20 09:27:18;;;;;;;;;;;;;;;9.31;61.48;98846.78;5067430;28;19924;-52
2023/02/20 09:29:46;;;;;;;;;;;;;;;9.44;61.19;98853.50;5070617;28;19931;-52
2023/02/20 09:32:16;;;;;;;;;;;;;;;9.59;61.12;98849.91;5065180;28;19958;-52
2023/02/20 09:34:44;;;;;;;;;;;;;;;9.81;60.35;98836.69;5070391;28;20304;-52
2023/02/20 09:37:12;;;;;;;;;;;;;;;9.87;59.98;98834.75;5064020;28;19931;-52
2023/02/20 09:40:07;;;;;;;;;;;;;;;9.92;59.58;98835.53;5071549;28;19967;-52
2023/02/20 09:42:36;;;;;;;;;;;;;;;9.96;59.15;98836.59;5067764;28;19948;-53
2023/02/20 09:45:07;;;;;;;;;;;;;;;9.87;59.21;98843.69;5065028;28;19925;-52
2023/02/20 09:47:41;;;;;;;;;;;;;;;9.87;59.06;98827.41;5069509;28;19924;-52
2023/02/20 09:50:11;;;;;;;;;;;;;;;9.72;59.22;98819.41;5060969;28;19932;-52
2023/02/20 09:52:41;;;;;;;;;;;;;;;9.75;59.03;98821.56;5062449;28;19929;-53
2023/02/20 09:55:11;;;;;;;;;;;;;;;9.84;59.10;98806.25;5067432;28;19928;-52
2023/02/20 09:58:07;;;;;;;;;;;;;;;9.80;59.61;98805.22;5073075;28;19936;-52
2023/02/20 10:01:00;;;;;;;;;;;;;;;9.91;59.29;98805.97;5058022;28;20298;-52
2023/02/20 10:03:55;;;;;;;;;;;;;;;10.01;59.09;98791.47;5066361;28;19986;-52
2023/02/20 10:06:25;;;;;;;;;;;;;;;10.14;58.62;98796.25;5079807;28;19924;-52
2023/02/20 10:08:54;;;;;;;;;;;;;;;10.24;58.72;98790.75;5069244;28;19939;-52
2023/02/20 10:11:46;;;;;;;;;;;;;;;10.20;58.43;98787.75;5068095;28;19931;-52
2023/02/20 10:14:19;;;;;;;;;;;;;;;10.21;59.12;98786.63;5039116;28;20374;-52
2023/02/20 10:17:14;;;;;;;;;;;;;;;10.19;58.98;98779.88;5061484;28;20035;-52
2023/02/20 10:19:44;;;;;;;;;;;;;;;10.28;57.99;98772.78;5062904;28;20289;-52
2023/02/20 10:22:13;;;;;;;;;;;;;;;10.33;57.68;98772.69;5060841;28;19933;-52
2023/02/20 10:24:48;;;;;;;;;;;;;;;10.30;57.23;98769.75;5091237;28;19932;-52
2023/02/20 10:27:19;;;;;;;;;;;;;;;10.43;57.67;98775.28;5069333;28;19924;-51
2023/02/20 10:30:12;;;;;;;;;;;;;;;10.63;56.13;98768.00;5062741;28;20451;-52
2023/02/20 10:32:42;;;;;;;;;;;;;;;10.70;55.80;98769.28;5064741;28;19942;-52
2023/02/20 10:35:12;;;;;;;;;;;;;;;10.92;55.47;98766.03;5065791;28;19932;-52
2023/02/20 10:37:42;;;;;;;;;;;;;;;11.09;55.05;98756.56;5070372;28;19932;-53
2023/02/20 10:40:20;;;;;;;;;;;;;;;11.14;54.78;98784.47;5063299;28;19925;-52
2023/02/20 10:42:51;;;;;;;;;;;;;;;10.88;54.47;98764.97;5065909;28;19925;-52
2023/02/20 10:45:26;;;;;;;;;;;;;;;10.88;55.20;98754.09;5058425;28;19978;-52
2023/02/20 10:47:55;;;;;;;;;;;;;;;10.97;55.68;98757.81;5067826;28;19924;-52
2023/02/20 10:50:25;;;;;;;;;;;;;;;10.90;55.75;98751.09;5068952;28;19924;-52
2023/02/20 10:52:54;;;;;;;;;;;;;;;10.99;55.98;98750.16;5058687;28;19928;-52
2023/02/20 10:55:24;;;;;;;;;;;;;;;11.10;55.99;98745.38;5061928;28;20285;-53
2023/02/20 10:57:55;;;;;;;;;;;;;;;11.20;55.53;98733.53;5064035;28;19929;-51
2023/02/20 11:00:25;;;;;;;;;;;;;;;11.07;55.57;98742.41;5064273;28;19928;-52
2023/02/20 11:02:56;;;;;;;;;;;;;;;11.02;55.66;98735.97;5058360;28;19932;-52
2023/02/20 11:05:28;;;;;;;;;;;;;;;11.15;55.62;98736.34;5063204;28;19928;-52
2023/02/20 11:07:56;;;;;;;;;;;;;;;11.10;55.90;98729.06;5067347;28;19924;-52
2023/02/20 11:10:24;;;;;;;;;;;;;;;11.04;56.08;98732.16;5068094;28;19925;-52
2023/02/20 11:12:53;;;;;;;;;;;;;;;10.96;55.85;98722.72;5067665;28;19929;-52
2023/02/20 11:15:22;;;;;;;;;;;;;;;10.84;56.21;98720.44;5070579;28;19933;-52
2023/02/20 11:17:51;;;;;;;;;;;;;;;10.93;56.64;98713.25;5068101;28;19929;-53
2023/02/20 11:20:41;;;;;;;;;;;;;;;11.22;55.93;98709.56;5069035;28;20427;-52
2023/02/20 11:23:10;;;;;;;;;;;;;;;11.61;55.08;98698.31;5065596;28;19989;-53
2023/02/20 11:25:41;;;;;;;;;;;;;;;11.84;54.26;98691.13;5068964;28;20136;-53
2023/02/20 11:31:02;;;;;;;;;;;;;;;12.37;52.51;98685.22;5069152;28;19929;-53
2023/02/20 11:33:31;;;;;;;;;;;;;;;12.40;52.22;98679.13;5069261;28;20328;-53
2023/02/20 11:36:25;;;;;;;;;;;;;;;12.41;52.19;98675.31;5068554;28;19931;-52
2023/02/20 11:38:59;;;;;;;;;;;;;;;12.53;52.05;98672.88;5068815;28;20012;-52
2023/02/20 11:41:28;;;;;;;;;;;;;;;12.53;51.43;98675.59;5062086;28;19924;-52
2023/02/20 11:47:19;;;;;;;;;;;;;;;12.59;50.40;98665.38;5066557;28;19928;-52
2023/02/20 11:49:48;;;;;;;;;;;;;;;12.77;50.29;98655.44;5063350;28;19982;-52
2023/02/20 11:52:16;;;;;;;;;;;;;;;13.03;49.51;98648.28;5065249;28;19965;-53
2023/02/20 11:54:46;;;;;;;;;;;;;;;12.78;49.88;98641.53;5068870;28;20369;-52
2023/02/20 11:57:18;;;;;;;;;;;;;;;12.71;50.41;98651.22;5068223;28;20374;-52
2023/02/20 11:59:47;;;;;;;;;;;;;;;12.50;50.79;98645.41;5070081;28;21154;-53
2023/02/20 12:02:26;;;;;;;;;;;;;;;12.54;51.12;98646.41;5065113;28;20346;-52
2023/02/20 12:05:01;;;;;;;;;;;;;;;12.58;50.81;98645.50;5073561;28;19943;-52
2023/02/20 12:07:33;;;;;;;;;;;;;;;12.79;50.74;98647.78;5079632;28;19924;-55
2023/02/20 12:10:04;;;;;;;;;;;;;;;12.63;50.05;98649.25;5065940;28;19935;-52
2023/02/20 12:12:32;;;;;;;;;;;;;;;12.48;50.10;98621.19;5056801;28;19929;-52
2023/02/20 12:15:01;;;;;;;;;;;;;;;12.61;49.30;98616.00;5067932;28;19925;-53
2023/02/20 12:17:31;;;;;;;;;;;;;;;12.76;49.12;98604.75;5063652;28;19924;-52
2023/02/20 12:20:03;;;;;;;;;;;;;;;12.72;49.55;98598.31;5062713;28;19936;-52
2023/02/20 12:22:34;;;;;;;;;;;;;;;12.92;49.32;98603.28;5063848;28;19939;-52
2023/02/20 12:25:07;;;;;;;;;;;;;;;13.01;48.91;98598.69;5070861;28;20361;-53
2023/02/20 12:27:46;;;;;;;;;;;;;;;13.17;48.56;98592.88;5067871;28;19924;-53
2023/02/20 12:30:25;;;;;;;;;;;;;;;13.14;48.84;98588.03;5098998;28;19971;-52
2023/02/20 12:32:55;;;;;;;;;;;;;;;13.24;47.77;98593.25;5073513;28;19928;-52
2023/02/20 12:35:28;;;;;;;;;;;;;;;13.23;48.10;98584.28;5069355;28;19932;-52
2023/02/20 12:38:00;;;;;;;;;;;;;;;13.28;47.57;98591.53;5074892;28;19928;-52
2023/02/20 12:40:33;;;;;;;;;;;;;;;13.27;46.88;98582.53;5072705;28;19950;-53
2023/02/20 12:43:04;;;;;;;;;;;;;;;13.23;46.99;98575.28;5071087;28;19936;-53
2023/02/20 12:45:34;;;;;;;;;;;;;;;13.31;46.46;98577.22;5070914;28;19929;-52
2023/02/20 12:48:06;;;;;;;;;;;;;;;13.18;45.67;98562.53;5073669;28;19928;-53
2023/02/20 12:50:49;;;;;;;;;;;;;;;13.18;45.10;98561.75;5055170;28;20380;-53
2023/02/20 12:53:19;;;;;;;;;;;;;;;13.10;45.73;98555.94;5056735;28;19925;-52
2023/02/20 12:55:51;;;;;;;;;;;;;;;13.00;45.96;98560.84;5067003;28;20030;-54
2023/02/20 12:58:22;;;;;;;;;;;;;;;12.95;46.37;98550.84;5073997;28;19926;-53
2023/02/20 13:00:51;;;;;;;;;;;;;;;12.91;46.55;98547.13;5058600;28;19929;-52
2023/02/20 13:03:20;;;;;;;;;;;;;;;13.00;46.62;98548.00;5066919;28;19924;-58
2023/02/20 13:05:48;;;;;;;;;;;;;;;13.25;45.68;98541.09;5067965;28;20436;-53
2023/02/20 13:08:18;;;;;;;;;;;;;;;13.24;45.58;98541.41;5068096;28;19925;-53
2023/02/20 13:10:52;;;;;;;;;;;;;;;13.20;45.17;98543.13;5061321;28;19925;-54
2023/02/20 13:13:20;;;;;;;;;;;;;;;13.21;45.34;98540.13;5063902;28;19928;-53
2023/02/20 13:15:50;;;;;;;;;;;;;;;13.18;45.60;98548.91;5060474;28;19960;-52
2023/02/20 13:18:20;;;;;;;;;;;;;;;13.05;45.21;98547.88;5068135;28;19974;-53
2023/02/20 13:20:49;;;;;;;;;;;;;;;12.98;45.49;98542.03;5057168;28;19932;-52
2023/02/20 13:23:27;;;;;;;;;;;;;;;13.06;45.21;98545.94;5070353;28;19928;-52
2023/02/20 13:25:57;;;;;;;;;;;;;;;12.97;44.62;98532.25;5065119;28;19998;-52
2023/02/20 13:28:44;;;;;;;;;;;;;;;13.10;44.36;98534.09;5072013;28;19980;-53
2023/02/20 13:31:14;;;;;;;;;;;;;;;13.07;44.25;98540.16;5065801;28;20404;-52
2023/02/20 13:33:46;;;;;;;;;;;;;;;13.09;44.39;98528.94;5058093;28;19929;-52
2023/02/20 13:36:16;;;;;;;;;;;;;;;13.04;45.19;98534.53;5067128;28;20301;-53
2023/02/20 13:39:04;;;;;;;;;;;;;;;13.02;44.92;98514.94;5066236;28;19962;-52
2023/02/20 13:41:42;;;;;;;;;;;;;;;12.99;45.21;98516.38;5068644;28;19960;-52
2023/02/20 13:44:26;;;;;;;;;;;;;;;12.98;46.21;98514.75;5061454;28;19924;-52
2023/02/20 13:46:58;;;;;;;;;;;;;;;13.06;46.34;98507.75;5070391;28;19924;-53